Kanda Logger — VRPN7 — position and weather

sailwx.info

Track history (hours):
 
Tides and Currents Weather Stations Pressure Air Temp Water Temp Dewpoint Dewpoint Depression Visibility Wind Speed Wind Dir Waves Ship Positions

Kanda Logger

Last reported at 2018-May-15 02:00 UTC. Time now 2018-May-22 10:08 UTC.
Position S 38°36' E 148°24'.

Length 180 m; draft 6.9 m.

Type: Cargo ship. MMSI: 477348200.

Wind from 100 at 29 knots

Barometer 1022.4 mb
Air temperature 16.0 ° C
Dewpoint 12.6 ° C
Water temperature 17.0 ° C

Date/timePositionNaut miles runAvg speedWind from/ knotsBaromVisibWave heightAir tempDewpointWater temp
2018-May-15 02:00S 38°36' E 148°24'2912.8 100 / 291022.4 16.012.617.0
2018-May-14 23:45S 38°20' E 148°54'313.4
2018-May-14 23:29S 38°18' E 148°58'4312.7
2018-May-14 20:08S 37°55' E 149°44'312.3
2018-May-14 19:55S 37°53' E 149°46'812.1
2018-May-14 19:15S 37°49' E 149°55'412.3
2018-May-14 18:57S 37°47' E 149°59'159 9.4
2018-May-14 02:00S 35°18' E 151°06'70 2.9 040 / 311024.4 20.015.320.0
2018-May-13 02:00S 34°12' E 151°36'3 2.7 040 / 341017.9 20.016.920.0
2018-May-13 00:56S 34°10' E 151°38'2 3.3
2018-May-13 00:12S 34°07' E 151°38'1 3.1
2018-May-12 23:52S 34°06' E 151°38'1 2.9
2018-May-12 23:30S 34°05' E 151°37'1 2.9
2018-May-12 23:01S 34°04' E 151°36'1 2.1
2018-May-12 22:30S 34°03' E 151°36'1 2.5
2018-May-12 22:00S 34°02' E 151°35'1 2.1
2018-May-12 21:30S 34°01' E 151°34'1 1.9
2018-May-12 21:00S 34°01' E 151°33'1 2.1
2018-May-12 20:31S 34°01' E 151°31'1 2.4
2018-May-12 19:55S 34°02' E 151°32'0 0.6
2018-May-12 19:30S 34°02' E 151°32'0 0.5
2018-May-12 19:00S 34°02' E 151°32'0 0.3
2018-May-12 18:30S 34°02' E 151°32'1 1.1
2018-May-12 18:01S 34°03' E 151°32'0 0.6
2018-May-12 17:30S 34°03' E 151°31'0 1.0
2018-May-12 17:00S 34°03' E 151°31'1 1.9
2018-May-12 16:30S 34°04' E 151°31'0 0.5
2018-May-12 16:00S 34°04' E 151°32'1 1.1
2018-May-12 15:31S 34°03' E 151°32'0 0.7
2018-May-12 15:00S 34°03' E 151°32'0 0.4
2018-May-12 14:30S 34°03' E 151°32'1 1.6
2018-May-12 14:00S 34°02' E 151°32'1 1.4
2018-May-12 13:29S 34°01' E 151°32'0 0.7
2018-May-12 13:00S 34°01' E 151°32'1 2.0
2018-May-12 12:29S 33°60' E 151°32'1 2.3
2018-May-12 12:01S 33°59' E 151°33'2 3.0
2018-May-12 11:31S 33°57' E 151°33'2 3.7
2018-May-12 11:00S 33°56' E 151°34'2 3.5
2018-May-12 10:28S 33°54' E 151°35'2 3.1
2018-May-12 09:58S 33°53' E 151°36'1 1.7
2018-May-12 09:30S 33°52' E 151°36'1 1.8
2018-May-12 09:00S 33°51' E 151°37'1 2.1
2018-May-12 08:31S 33°50' E 151°37'1 2.3
2018-May-12 08:00S 33°50' E 151°38'1 2.9
2018-May-12 07:30S 33°50' E 151°40'0 0.9
2018-May-12 07:00S 33°49' E 151°40'1 1.9
2018-May-12 06:30S 33°48' E 151°40'1 1.1
2018-May-12 06:01S 33°49' E 151°41'1 1.7
2018-May-12 05:30S 33°48' E 151°41'1 1.3
2018-May-12 05:00S 33°47' E 151°41'1 2.9
2018-May-12 04:30S 33°46' E 151°41'2 3.4
2018-May-12 04:00S 33°44' E 151°42'1 2.8
2018-May-12 03:30S 33°43' E 151°43'2 4.2
2018-May-12 03:00S 33°41' E 151°43'2 4.5
2018-May-12 02:30S 33°39' E 151°44'31 7.4
2018-May-11 22:13S 33°08' E 151°55'211.0
2018-May-11 22:00S 33°06' E 151°54'511.1
2018-May-11 21:30S 33°01' E 151°52'611.4
2018-May-11 21:00S 32°56' E 151°49'3 5.2
2018-May-11 20:30S 32°55' E 151°47'1 3.0
2018-May-11 20:00S 32°54' E 151°46'0 0.0
2018-May-11 19:28S 32°54' E 151°46'0 0.0
2018-May-11 18:58S 32°54' E 151°46'0 0.0
2018-May-11 18:28S 32°54' E 151°46'0 0.0
2018-May-11 17:58S 32°54' E 151°46'0 0.0
2018-May-11 17:28S 32°54' E 151°46'0 0.0
2018-May-11 16:58S 32°54' E 151°46'0 0.0
2018-May-11 16:01S 32°54' E 151°46'0 0.0
2018-May-11 15:55S 32°54' E 151°46'0 0.0
2018-May-11 15:25S 32°54' E 151°46'0 0.0
2018-May-11 14:58S 32°54' E 151°46'0 0.0
2018-May-11 14:22S 32°54' E 151°46'0 0.0
2018-May-11 13:01S 32°54' E 151°46'0 0.1
2018-May-11 12:55S 32°54' E 151°46'0 0.0
2018-May-11 12:22S 32°54' E 151°46'0 0.0
2018-May-11 11:58S 32°54' E 151°46'0 0.0
2018-May-11 10:49S 32°54' E 151°46'0 0.0
2018-May-11 10:22S 32°54' E 151°46'0 0.0
2018-May-11 09:58S 32°54' E 151°46'0 0.0
2018-May-11 09:28S 32°54' E 151°46'0 0.0
2018-May-11 06:19S 32°54' E 151°46'0 0.0
2018-May-11 05:52S 32°54' E 151°46'0 0.0
2018-May-11 05:28S 32°54' E 151°46'0 0.0
2018-May-11 04:58S 32°54' E 151°46'0 0.0
2018-May-11 04:28S 32°54' E 151°46'0 0.0
2018-May-11 03:58S 32°54' E 151°46'0 0.0
2018-May-11 03:28S 32°54' E 151°46'0 0.0
2018-May-11 02:55S 32°54' E 151°46'0 0.0
2018-May-11 01:46S 32°54' E 151°46'0 0.0
2018-May-11 01:28S 32°54' E 151°46'0 0.0
2018-May-11 00:58S 32°54' E 151°46'0 0.0
2018-May-11 00:28S 32°54' E 151°46'0 0.0
2018-May-10 23:19S 32°54' E 151°46'0 0.0
2018-May-10 22:58S 32°54' E 151°46'0 0.0
2018-May-10 22:28S 32°54' E 151°46'0 0.0
2018-May-10 16:58S 32°54' E 151°46'0 0.0
2018-May-10 16:22S 32°54' E 151°46'0 0.0
2018-May-10 15:58S 32°54' E 151°46'0 0.0
2018-May-10 15:28S 32°54' E 151°46'0 0.0
2018-May-10 14:58S 32°54' E 151°46'0 0.0
2018-May-10 08:34S 32°54' E 151°46'0 0.0
2018-May-10 07:10S 32°54' E 151°46'0 0.0
2018-May-10 06:46S 32°54' E 151°46'0 0.0
2018-May-10 06:28S 32°54' E 151°46'0 0.0
2018-May-10 05:58S 32°54' E 151°46'0 0.0
2018-May-10 01:49S 32°54' E 151°46'0 0.0
2018-May-10 01:28S 32°54' E 151°46'0 0.0
2018-May-10 00:58S 32°54' E 151°46'0 0.0
2018-May-10 00:28S 32°54' E 151°46'0 0.0
2018-May-09 23:55S 32°54' E 151°46'0 0.0
2018-May-09 22:52S 32°54' E 151°46'0 0.0
2018-May-09 22:28S 32°54' E 151°46'0 0.0
2018-May-09 21:58S 32°54' E 151°46'0 0.0
2018-May-09 21:28S 32°54' E 151°46'0 0.0
2018-May-09 20:58S 32°54' E 151°46'0 0.0
2018-May-09 20:28S 32°54' E 151°46'0 0.0
2018-May-09 19:55S 32°54' E 151°46'0 0.0
2018-May-09 19:28S 32°54' E 151°46'0 0.0
2018-May-09 18:58S 32°54' E 151°46'0 0.0
2018-May-09 18:28S 32°54' E 151°46'0 0.0
2018-May-09 17:58S 32°54' E 151°46'0 0.0
2018-May-09 17:28S 32°54' E 151°46'0 0.0
2018-May-09 16:58S 32°54' E 151°46'0 0.0
2018-May-09 16:25S 32°54' E 151°46'0 0.0
2018-May-09 15:49S 32°54' E 151°46'0 0.0
2018-May-09 15:22S 32°54' E 151°46'0 0.0
2018-May-09 14:58S 32°54' E 151°46'0 0.1
2018-May-09 14:30S 32°54' E 151°46'1 2.4
2018-May-09 14:00S 32°55' E 151°46'3 6.2
2018-May-09 13:30S 32°55' E 151°50'5 9.1
2018-May-09 13:00S 32°59' E 151°53'4 8.4
2018-May-09 12:30S 33°02' E 151°56'3 6.6
2018-May-09 12:00S 33°03' E 152°00'3 6.8
2018-May-09 11:30S 33°03' E 152°04'3 6.9
2018-May-09 11:00S 33°04' E 152°08'2 4.2
2018-May-09 10:30S 33°03' E 152°11'0 0.5
2018-May-09 09:59S 33°03' E 152°11'0 0.3
2018-May-09 09:29S 33°03' E 152°11'0 0.2
2018-May-09 08:59S 33°03' E 152°11'0 0.2
2018-May-09 08:29S 33°03' E 152°11'0 0.4
2018-May-09 07:59S 33°03' E 152°11'0 0.1
2018-May-09 07:29S 33°03' E 152°11'0 0.2
2018-May-09 06:59S 33°03' E 152°11'0 0.3
2018-May-09 06:26S 33°03' E 152°11'0 0.5
2018-May-09 05:59S 33°03' E 152°11'0 0.8
2018-May-09 05:29S 33°04' E 152°12'1 0.9
2018-May-09 04:53S 33°04' E 152°11'0 0.8
2018-May-09 04:29S 33°05' E 152°11'0 0.8
2018-May-09 03:59S 33°05' E 152°11'1 0.8
2018-May-09 03:17S 33°05' E 152°10'0 0.9
2018-May-09 02:59S 33°05' E 152°10'1 0.8
2018-May-09 02:14S 33°06' E 152°10'0 0.9
2018-May-09 01:59S 33°06' E 152°09'0 0.9
2018-May-09 01:29S 33°06' E 152°09'0 0.7
2018-May-09 00:59S 33°06' E 152°08'0 0.7
2018-May-09 00:29S 33°06' E 152°08'0 0.6
2018-May-08 23:59S 33°06' E 152°08'0 0.6
2018-May-08 23:29S 33°06' E 152°07'0 0.5
2018-May-08 22:56S 33°06' E 152°07'0 0.6
2018-May-08 22:29S 33°06' E 152°07'0 0.7
2018-May-08 21:59S 33°06' E 152°06'0 0.7
2018-May-08 21:29S 33°07' E 152°06'0 0.6
2018-May-08 20:56S 33°07' E 152°06'0 0.6
2018-May-08 20:29S 33°07' E 152°06'0 0.4
2018-May-08 19:47S 33°07' E 152°05'0 0.3
2018-May-08 19:29S 33°07' E 152°05'0 0.4
2018-May-08 18:59S 33°08' E 152°05'0 0.4
2018-May-08 18:29S 33°08' E 152°05'1 0.3
2018-May-08 16:05S 33°08' E 152°04'0 0.2
2018-May-08 15:59S 33°08' E 152°04'0 0.5
2018-May-08 15:29S 33°08' E 152°04'0 0.4
2018-May-08 14:59S 33°08' E 152°04'0 0.4
2018-May-08 14:29S 33°08' E 152°04'0 0.4
2018-May-08 13:59S 33°08' E 152°04'0 0.3
2018-May-08 13:29S 33°08' E 152°04'0 0.3
2018-May-08 12:59S 33°08' E 152°04'0 0.4
2018-May-08 12:29S 33°07' E 152°04'0 0.4
2018-May-08 11:59S 33°07' E 152°04'0 0.3
2018-May-08 11:29S 33°07' E 152°04'0 0.3
2018-May-08 10:59S 33°07' E 152°04'0 0.3
2018-May-08 10:29S 33°07' E 152°04'0 0.4
2018-May-08 09:59S 33°07' E 152°04'0 0.3
2018-May-08 09:29S 33°07' E 152°04'0 0.2
2018-May-08 08:59S 33°06' E 152°04'0 0.3
2018-May-08 08:29S 33°06' E 152°04'0 0.0
2018-May-08 07:59S 33°06' E 152°04'0 0.2
2018-May-08 07:29S 33°06' E 152°04'0 0.1
2018-May-08 06:59S 33°06' E 152°04'0 0.2
2018-May-08 06:29S 33°07' E 152°04'0 0.3
2018-May-08 05:59S 33°07' E 152°04'0 0.3
2018-May-08 05:29S 33°07' E 152°04'0 0.4
2018-May-08 04:59S 33°07' E 152°04'0 0.4
2018-May-08 04:29S 33°07' E 152°04'0 0.5
2018-May-08 03:59S 33°07' E 152°04'0 0.2
2018-May-08 03:29S 33°07' E 152°04'0 0.3
2018-May-08 02:59S 33°07' E 152°04'0 0.4
2018-May-08 02:29S 33°07' E 152°04'0 0.6
2018-May-08 01:59S 33°07' E 152°03'0 0.6
2018-May-08 01:29S 33°07' E 152°03'0 0.6
2018-May-08 00:59S 33°07' E 152°02'0 0.8
2018-May-08 00:29S 33°07' E 152°02'0 0.7
2018-May-07 23:59S 33°07' E 152°02'0 0.7
2018-May-07 23:29S 33°07' E 152°01'0 0.7
2018-May-07 22:59S 33°07' E 152°01'0 0.7
2018-May-07 22:29S 33°06' E 152°01'0 0.6
2018-May-07 21:59S 33°06' E 152°00'0 0.6
2018-May-07 21:26S 33°06' E 152°00'0 0.5
2018-May-07 20:59S 33°06' E 151°60'0 0.7
2018-May-07 20:29S 33°06' E 151°60'0 0.6
2018-May-07 19:59S 33°05' E 151°59'0 0.6
2018-May-07 19:29S 33°05' E 151°59'0 0.7
2018-May-07 18:59S 33°05' E 151°59'0 0.7
2018-May-07 18:29S 33°04' E 151°59'0 0.3
2018-May-07 17:59S 33°04' E 151°59'1 1.9
2018-May-07 17:30S 33°04' E 151°58'3 6.1
2018-May-07 17:00S 33°01' E 151°58'510.6
2018-May-07 16:30S 32°58' E 152°03'4 7.5
2018-May-07 16:00S 32°57' E 152°08'5 9.4
2018-May-07 15:30S 32°55' E 152°13'713.5
2018-May-07 15:00S 32°53' E 152°20'713.7
2018-May-07 14:30S 32°49' E 152°27'714.2
2018-May-07 14:01S 32°44' E 152°34'816.2
2018-May-07 13:30S 32°39' E 152°41'815.7
2018-May-07 13:01S 32°34' E 152°48'24915.4
2018-May-06 20:48S 28°32' E 153°55'413.3
2018-May-06 20:30S 28°28' E 153°55'1013.2
2018-May-06 19:44S 28°18' E 153°54'313.0
2018-May-06 19:28S 28°14' E 153°55'612.9
2018-May-06 19:00S 28°08' E 153°54'712.7
2018-May-06 18:29S 28°02' E 153°54'612.4
2018-May-06 18:00S 27°56' E 153°54'  
Track history (hours):
 
Tides and Currents Weather Stations Pressure Air Temp Water Temp Dewpoint Dewpoint Depression Visibility Wind Speed Wind Dir Waves Ship Positions

Kanda Logger

Last reported at 2018-May-15 02:00 UTC. Time now 2018-May-22 10:08 UTC.
Position S 38°36' E 148°24'.

Length 180 m; draft 6.9 m.

Type: Cargo ship. MMSI: 477348200.

Wind from 100 at 29 knots

Barometer 1022.4 mb
Air temperature 16.0 ° C
Dewpoint 12.6 ° C
Water temperature 17.0 ° C

Date/timePositionNaut miles runAvg speedWind from/ knotsBaromVisibWave heightAir tempDewpointWater temp
2018-May-15 02:00S 38°36' E 148°24'2912.8 100 / 291022.4 16.012.617.0
2018-May-14 23:45S 38°20' E 148°54'313.4
2018-May-14 23:29S 38°18' E 148°58'4312.7
2018-May-14 20:08S 37°55' E 149°44'312.3
2018-May-14 19:55S 37°53' E 149°46'812.1
2018-May-14 19:15S 37°49' E 149°55'412.3
2018-May-14 18:57S 37°47' E 149°59'159 9.4
2018-May-14 02:00S 35°18' E 151°06'70 2.9 040 / 311024.4 20.015.320.0
2018-May-13 02:00S 34°12' E 151°36'3 2.7 040 / 341017.9 20.016.920.0
2018-May-13 00:56S 34°10' E 151°38'2 3.3
2018-May-13 00:12S 34°07' E 151°38'1 3.1
2018-May-12 23:52S 34°06' E 151°38'1 2.9
2018-May-12 23:30S 34°05' E 151°37'1 2.9
2018-May-12 23:01S 34°04' E 151°36'1 2.1
2018-May-12 22:30S 34°03' E 151°36'1 2.5
2018-May-12 22:00S 34°02' E 151°35'1 2.1
2018-May-12 21:30S 34°01' E 151°34'1 1.9
2018-May-12 21:00S 34°01' E 151°33'1 2.1
2018-May-12 20:31S 34°01' E 151°31'1 2.4
2018-May-12 19:55S 34°02' E 151°32'0 0.6
2018-May-12 19:30S 34°02' E 151°32'0 0.5
2018-May-12 19:00S 34°02' E 151°32'0 0.3
2018-May-12 18:30S 34°02' E 151°32'1 1.1
2018-May-12 18:01S 34°03' E 151°32'0 0.6
2018-May-12 17:30S 34°03' E 151°31'0 1.0
2018-May-12 17:00S 34°03' E 151°31'1 1.9
2018-May-12 16:30S 34°04' E 151°31'0 0.5
2018-May-12 16:00S 34°04' E 151°32'1 1.1
2018-May-12 15:31S 34°03' E 151°32'0 0.7
2018-May-12 15:00S 34°03' E 151°32'0 0.4
2018-May-12 14:30S 34°03' E 151°32'1 1.6
2018-May-12 14:00S 34°02' E 151°32'1 1.4
2018-May-12 13:29S 34°01' E 151°32'0 0.7
2018-May-12 13:00S 34°01' E 151°32'1 2.0
2018-May-12 12:29S 33°60' E 151°32'1 2.3
2018-May-12 12:01S 33°59' E 151°33'2 3.0
2018-May-12 11:31S 33°57' E 151°33'2 3.7
2018-May-12 11:00S 33°56' E 151°34'2 3.5
2018-May-12 10:28S 33°54' E 151°35'2 3.1
2018-May-12 09:58S 33°53' E 151°36'1 1.7
2018-May-12 09:30S 33°52' E 151°36'1 1.8
2018-May-12 09:00S 33°51' E 151°37'1 2.1
2018-May-12 08:31S 33°50' E 151°37'1 2.3
2018-May-12 08:00S 33°50' E 151°38'1 2.9
2018-May-12 07:30S 33°50' E 151°40'0 0.9
2018-May-12 07:00S 33°49' E 151°40'1 1.9
2018-May-12 06:30S 33°48' E 151°40'1 1.1
2018-May-12 06:01S 33°49' E 151°41'1 1.7
2018-May-12 05:30S 33°48' E 151°41'1 1.3
2018-May-12 05:00S 33°47' E 151°41'1 2.9
2018-May-12 04:30S 33°46' E 151°41'2 3.4
2018-May-12 04:00S 33°44' E 151°42'1 2.8
2018-May-12 03:30S 33°43' E 151°43'2 4.2
2018-May-12 03:00S 33°41' E 151°43'2 4.5
2018-May-12 02:30S 33°39' E 151°44'31 7.4
2018-May-11 22:13S 33°08' E 151°55'211.0
2018-May-11 22:00S 33°06' E 151°54'511.1
2018-May-11 21:30S 33°01' E 151°52'611.4
2018-May-11 21:00S 32°56' E 151°49'3 5.2
2018-May-11 20:30S 32°55' E 151°47'1 3.0
2018-May-11 20:00S 32°54' E 151°46'0 0.0
2018-May-11 19:28S 32°54' E 151°46'0 0.0
2018-May-11 18:58S 32°54' E 151°46'0 0.0
2018-May-11 18:28S 32°54' E 151°46'0 0.0
2018-May-11 17:58S 32°54' E 151°46'0 0.0
2018-May-11 17:28S 32°54' E 151°46'0 0.0
2018-May-11 16:58S 32°54' E 151°46'0 0.0
2018-May-11 16:01S 32°54' E 151°46'0 0.0
2018-May-11 15:55S 32°54' E 151°46'0 0.0
2018-May-11 15:25S 32°54' E 151°46'0 0.0
2018-May-11 14:58S 32°54' E 151°46'0 0.0
2018-May-11 14:22S 32°54' E 151°46'0 0.0
2018-May-11 13:01S 32°54' E 151°46'0 0.1
2018-May-11 12:55S 32°54' E 151°46'0 0.0
2018-May-11 12:22S 32°54' E 151°46'0 0.0
2018-May-11 11:58S 32°54' E 151°46'0 0.0
2018-May-11 10:49S 32°54' E 151°46'0 0.0
2018-May-11 10:22S 32°54' E 151°46'0 0.0
2018-May-11 09:58S 32°54' E 151°46'0 0.0
2018-May-11 09:28S 32°54' E 151°46'0 0.0
2018-May-11 06:19S 32°54' E 151°46'0 0.0
2018-May-11 05:52S 32°54' E 151°46'0 0.0
2018-May-11 05:28S 32°54' E 151°46'0 0.0
2018-May-11 04:58S 32°54' E 151°46'0 0.0
2018-May-11 04:28S 32°54' E 151°46'0 0.0
2018-May-11 03:58S 32°54' E 151°46'0 0.0
2018-May-11 03:28S 32°54' E 151°46'0 0.0
2018-May-11 02:55S 32°54' E 151°46'0 0.0
2018-May-11 01:46S 32°54' E 151°46'0 0.0
2018-May-11 01:28S 32°54' E 151°46'0 0.0
2018-May-11 00:58S 32°54' E 151°46'0 0.0
2018-May-11 00:28S 32°54' E 151°46'0 0.0
2018-May-10 23:19S 32°54' E 151°46'0 0.0
2018-May-10 22:58S 32°54' E 151°46'0 0.0
2018-May-10 22:28S 32°54' E 151°46'0 0.0
2018-May-10 16:58S 32°54' E 151°46'0 0.0
2018-May-10 16:22S 32°54' E 151°46'0 0.0
2018-May-10 15:58S 32°54' E 151°46'0 0.0
2018-May-10 15:28S 32°54' E 151°46'0 0.0
2018-May-10 14:58S 32°54' E 151°46'0 0.0
2018-May-10 08:34S 32°54' E 151°46'0 0.0
2018-May-10 07:10S 32°54' E 151°46'0 0.0
2018-May-10 06:46S 32°54' E 151°46'0 0.0
2018-May-10 06:28S 32°54' E 151°46'0 0.0
2018-May-10 05:58S 32°54' E 151°46'0 0.0
2018-May-10 01:49S 32°54' E 151°46'0 0.0
2018-May-10 01:28S 32°54' E 151°46'0 0.0
2018-May-10 00:58S 32°54' E 151°46'0 0.0
2018-May-10 00:28S 32°54' E 151°46'0 0.0
2018-May-09 23:55S 32°54' E 151°46'0 0.0
2018-May-09 22:52S 32°54' E 151°46'0 0.0
2018-May-09 22:28S 32°54' E 151°46'0 0.0
2018-May-09 21:58S 32°54' E 151°46'0 0.0
2018-May-09 21:28S 32°54' E 151°46'0 0.0
2018-May-09 20:58S 32°54' E 151°46'0 0.0
2018-May-09 20:28S 32°54' E 151°46'0 0.0
2018-May-09 19:55S 32°54' E 151°46'0 0.0
2018-May-09 19:28S 32°54' E 151°46'0 0.0
2018-May-09 18:58S 32°54' E 151°46'0 0.0
2018-May-09 18:28S 32°54' E 151°46'0 0.0
2018-May-09 17:58S 32°54' E 151°46'0 0.0
2018-May-09 17:28S 32°54' E 151°46'0 0.0
2018-May-09 16:58S 32°54' E 151°46'0 0.0
2018-May-09 16:25S 32°54' E 151°46'0 0.0
2018-May-09 15:49S 32°54' E 151°46'0 0.0
2018-May-09 15:22S 32°54' E 151°46'0 0.0
2018-May-09 14:58S 32°54' E 151°46'0 0.1
2018-May-09 14:30S 32°54' E 151°46'1 2.4
2018-May-09 14:00S 32°55' E 151°46'3 6.2
2018-May-09 13:30S 32°55' E 151°50'5 9.1
2018-May-09 13:00S 32°59' E 151°53'4 8.4
2018-May-09 12:30S 33°02' E 151°56'3 6.6
2018-May-09 12:00S 33°03' E 152°00'3 6.8
2018-May-09 11:30S 33°03' E 152°04'3 6.9
2018-May-09 11:00S 33°04' E 152°08'2 4.2
2018-May-09 10:30S 33°03' E 152°11'0 0.5
2018-May-09 09:59S 33°03' E 152°11'0 0.3
2018-May-09 09:29S 33°03' E 152°11'0 0.2
2018-May-09 08:59S 33°03' E 152°11'0 0.2
2018-May-09 08:29S 33°03' E 152°11'0 0.4
2018-May-09 07:59S 33°03' E 152°11'0 0.1
2018-May-09 07:29S 33°03' E 152°11'0 0.2
2018-May-09 06:59S 33°03' E 152°11'0 0.3
2018-May-09 06:26S 33°03' E 152°11'0 0.5
2018-May-09 05:59S 33°03' E 152°11'0 0.8
2018-May-09 05:29S 33°04' E 152°12'1 0.9
2018-May-09 04:53S 33°04' E 152°11'0 0.8
2018-May-09 04:29S 33°05' E 152°11'0 0.8
2018-May-09 03:59S 33°05' E 152°11'1 0.8
2018-May-09 03:17S 33°05' E 152°10'0 0.9
2018-May-09 02:59S 33°05' E 152°10'1 0.8
2018-May-09 02:14S 33°06' E 152°10'0 0.9
2018-May-09 01:59S 33°06' E 152°09'0 0.9
2018-May-09 01:29S 33°06' E 152°09'0 0.7
2018-May-09 00:59S 33°06' E 152°08'0 0.7
2018-May-09 00:29S 33°06' E 152°08'0 0.6
2018-May-08 23:59S 33°06' E 152°08'0 0.6
2018-May-08 23:29S 33°06' E 152°07'0 0.5
2018-May-08 22:56S 33°06' E 152°07'0 0.6
2018-May-08 22:29S 33°06' E 152°07'0 0.7
2018-May-08 21:59S 33°06' E 152°06'0 0.7
2018-May-08 21:29S 33°07' E 152°06'0 0.6
2018-May-08 20:56S 33°07' E 152°06'0 0.6
2018-May-08 20:29S 33°07' E 152°06'0 0.4
2018-May-08 19:47S 33°07' E 152°05'0 0.3
2018-May-08 19:29S 33°07' E 152°05'0 0.4
2018-May-08 18:59S 33°08' E 152°05'0 0.4
2018-May-08 18:29S 33°08' E 152°05'1 0.3
2018-May-08 16:05S 33°08' E 152°04'0 0.2
2018-May-08 15:59S 33°08' E 152°04'0 0.5
2018-May-08 15:29S 33°08' E 152°04'0 0.4
2018-May-08 14:59S 33°08' E 152°04'0 0.4
2018-May-08 14:29S 33°08' E 152°04'0 0.4
2018-May-08 13:59S 33°08' E 152°04'0 0.3
2018-May-08 13:29S 33°08' E 152°04'0 0.3
2018-May-08 12:59S 33°08' E 152°04'0 0.4
2018-May-08 12:29S 33°07' E 152°04'0 0.4
2018-May-08 11:59S 33°07' E 152°04'0 0.3
2018-May-08 11:29S 33°07' E 152°04'0 0.3
2018-May-08 10:59S 33°07' E 152°04'0 0.3
2018-May-08 10:29S 33°07' E 152°04'0 0.4
2018-May-08 09:59S 33°07' E 152°04'0 0.3
2018-May-08 09:29S 33°07' E 152°04'0 0.2
2018-May-08 08:59S 33°06' E 152°04'0 0.3
2018-May-08 08:29S 33°06' E 152°04'0 0.0
2018-May-08 07:59S 33°06' E 152°04'0 0.2
2018-May-08 07:29S 33°06' E 152°04'0 0.1
2018-May-08 06:59S 33°06' E 152°04'0 0.2
2018-May-08 06:29S 33°07' E 152°04'0 0.3
2018-May-08 05:59S 33°07' E 152°04'0 0.3
2018-May-08 05:29S 33°07' E 152°04'0 0.4
2018-May-08 04:59S 33°07' E 152°04'0 0.4
2018-May-08 04:29S 33°07' E 152°04'0 0.5
2018-May-08 03:59S 33°07' E 152°04'0 0.2
2018-May-08 03:29S 33°07' E 152°04'0 0.3
2018-May-08 02:59S 33°07' E 152°04'0 0.4
2018-May-08 02:29S 33°07' E 152°04'0 0.6
2018-May-08 01:59S 33°07' E 152°03'0 0.6
2018-May-08 01:29S 33°07' E 152°03'0 0.6
2018-May-08 00:59S 33°07' E 152°02'0 0.8
2018-May-08 00:29S 33°07' E 152°02'0 0.7
2018-May-07 23:59S 33°07' E 152°02'0 0.7
2018-May-07 23:29S 33°07' E 152°01'0 0.7
2018-May-07 22:59S 33°07' E 152°01'0 0.7
2018-May-07 22:29S 33°06' E 152°01'0 0.6
2018-May-07 21:59S 33°06' E 152°00'0 0.6
2018-May-07 21:26S 33°06' E 152°00'0 0.5
2018-May-07 20:59S 33°06' E 151°60'0 0.7
2018-May-07 20:29S 33°06' E 151°60'0 0.6
2018-May-07 19:59S 33°05' E 151°59'0 0.6
2018-May-07 19:29S 33°05' E 151°59'0 0.7
2018-May-07 18:59S 33°05' E 151°59'0 0.7
2018-May-07 18:29S 33°04' E 151°59'0 0.3
2018-May-07 17:59S 33°04' E 151°59'1 1.9
2018-May-07 17:30S 33°04' E 151°58'3 6.1
2018-May-07 17:00S 33°01' E 151°58'510.6
2018-May-07 16:30S 32°58' E 152°03'4 7.5
2018-May-07 16:00S 32°57' E 152°08'5 9.4
2018-May-07 15:30S 32°55' E 152°13'713.5
2018-May-07 15:00S 32°53' E 152°20'713.7
2018-May-07 14:30S 32°49' E 152°27'714.2
2018-May-07 14:01S 32°44' E 152°34'816.2
2018-May-07 13:30S 32°39' E 152°41'815.7
2018-May-07 13:01S 32°34' E 152°48'24915.4
2018-May-06 20:48S 28°32' E 153°55'413.3
2018-May-06 20:30S 28°28' E 153°55'1013.2
2018-May-06 19:44S 28°18' E 153°54'313.0
2018-May-06 19:28S 28°14' E 153°55'612.9
2018-May-06 19:00S 28°08' E 153°54'712.7
2018-May-06 18:29S 28°02' E 153°54'612.4
2018-May-06 18:00S 27°56' E 153°54'  

Dump ship's entire track history